createdAt,value
2023-08-15T00:00:36.089Z,83.98
2023-08-15T00:03:02.796Z,83.92
2023-08-15T00:05:29.569Z,83.94
2023-08-15T00:07:56.208Z,84.09
2023-08-15T00:10:22.767Z,84.10
2023-08-15T00:12:49.400Z,84.47
2023-08-15T00:15:16.076Z,84.77
2023-08-15T00:17:42.936Z,84.98
2023-08-15T00:20:10.283Z,85.02
2023-08-15T00:22:36.821Z,85.09
2023-08-15T00:25:03.961Z,85.31
2023-08-15T00:27:30.522Z,85.40
2023-08-15T00:29:57.040Z,85.50
2023-08-15T00:32:23.835Z,85.63
2023-08-15T00:34:50.491Z,85.59
2023-08-15T00:37:17.081Z,85.52
2023-08-15T00:39:43.877Z,85.33
2023-08-15T00:42:10.511Z,85.64
2023-08-15T00:44:42.086Z,85.61
2023-08-15T00:47:08.958Z,85.47
2023-08-15T00:49:35.937Z,84.99
2023-08-15T00:52:03.799Z,84.83
2023-08-15T00:54:31.065Z,85.11
2023-08-15T00:56:57.904Z,85.07
2023-08-15T00:59:24.798Z,84.96
2023-08-15T01:01:51.486Z,85.16
2023-08-15T01:04:18.655Z,85.10
2023-08-15T01:06:45.211Z,84.75
2023-08-15T01:09:11.805Z,84.50
2023-08-15T01:12:05.411Z,84.34
2023-08-15T01:14:41.202Z,85.01
2023-08-15T01:17:11.820Z,85.53
2023-08-15T01:19:48.150Z,85.48
2023-08-15T01:22:28.770Z,85.73
2023-08-15T01:24:55.295Z,86.11
2023-08-15T01:27:22.036Z,86.07
2023-08-15T01:29:49.195Z,86.27
2023-08-15T01:32:24.735Z,85.64
2023-08-15T01:35:00.796Z,85.78
2023-08-15T01:37:31.234Z,85.54
2023-08-15T01:40:01.746Z,86.04
2023-08-15T01:42:28.849Z,85.86
2023-08-15T01:44:56.837Z,85.30
2023-08-15T01:47:23.709Z,84.81
2023-08-15T01:49:50.466Z,85.22
2023-08-15T01:52:17.101Z,85.38
2023-08-15T01:54:43.684Z,85.44
2023-08-15T01:57:10.219Z,85.68
2023-08-15T01:59:36.746Z,85.71
2023-08-15T02:02:07.364Z,85.76
2023-08-15T02:04:34.376Z,85.67
2023-08-15T02:07:00.910Z,85.80
2023-08-15T02:09:27.673Z,85.77
2023-08-15T02:11:54.311Z,85.73
2023-08-15T02:14:20.846Z,85.48
2023-08-15T02:16:47.405Z,85.24
2023-08-15T02:19:16.944Z,84.91
2023-08-15T02:21:43.511Z,85.02
2023-08-15T02:24:10.536Z,84.77
2023-08-15T02:26:37.197Z,84.83
2023-08-15T02:29:04.418Z,84.63
2023-08-15T02:31:31.945Z,84.38
2023-08-15T02:33:58.572Z,85.25
2023-08-15T02:36:25.105Z,89.51
2023-08-15T02:38:51.906Z,91.30
2023-08-15T02:41:18.614Z,92.38
2023-08-15T02:43:45.249Z,93.09
2023-08-15T02:46:11.836Z,93.38
2023-08-15T02:48:38.471Z,93.44
2023-08-15T02:51:08.685Z,94.04
2023-08-15T02:53:36.417Z,94.47
2023-08-15T02:56:03.267Z,94.40
2023-08-15T02:58:30.108Z,94.53
2023-08-15T03:00:56.920Z,94.59
2023-08-15T03:03:23.710Z,94.73
2023-08-15T03:05:50.241Z,94.95
2023-08-15T03:08:16.837Z,94.86
2023-08-15T03:10:43.719Z,94.68
2023-08-15T03:13:10.315Z,94.97
2023-08-15T03:15:37.536Z,95.28
2023-08-15T03:18:04.330Z,95.47
2023-08-15T03:20:31.096Z,95.50
2023-08-15T03:22:57.699Z,95.48
2023-08-15T03:25:24.262Z,95.50
2023-08-15T03:27:50.939Z,95.57
2023-08-15T03:30:17.486Z,95.57
2023-08-15T03:32:44.092Z,95.60
2023-08-15T03:35:10.638Z,95.37
2023-08-15T03:37:37.245Z,95.47
2023-08-15T03:40:05.142Z,95.33
2023-08-15T03:42:31.847Z,95.41
2023-08-15T03:44:58.414Z,95.73
2023-08-15T03:47:25.181Z,96.01
2023-08-15T03:49:51.832Z,96.42
2023-08-15T03:52:18.520Z,96.61
2023-08-15T03:54:45.243Z,96.74
2023-08-15T03:57:11.884Z,96.89
2023-08-15T03:59:38.555Z,96.84
2023-08-15T04:02:05.141Z,96.73
2023-08-15T04:04:31.716Z,96.74
2023-08-15T04:06:58.615Z,96.73
2023-08-15T04:09:25.172Z,96.75
2023-08-15T04:11:51.843Z,96.67
2023-08-15T04:14:18.372Z,96.71
2023-08-15T04:19:11.387Z,96.87
2023-08-15T04:21:37.943Z,96.88
2023-08-15T04:24:04.793Z,96.89
2023-08-15T04:26:32.023Z,96.92
2023-08-15T04:28:59.008Z,96.91
2023-08-15T04:31:25.763Z,96.96
2023-08-15T04:33:52.465Z,97.05
2023-08-15T04:36:18.963Z,96.99
2023-08-15T04:38:45.453Z,97.07
2023-08-15T04:41:12.309Z,97.04
2023-08-15T04:43:38.838Z,96.93
2023-08-15T04:46:05.501Z,97.00
2023-08-15T04:48:32.098Z,97.02
2023-08-15T04:50:58.700Z,96.98
2023-08-15T04:53:25.308Z,96.89
2023-08-15T04:55:52.007Z,96.82
2023-08-15T04:58:18.546Z,96.71
2023-08-15T05:00:45.545Z,96.76
2023-08-15T05:03:12.283Z,96.69
2023-08-15T05:05:38.957Z,96.74
2023-08-15T05:08:07.761Z,96.71
2023-08-15T05:10:34.404Z,96.63
2023-08-15T05:13:01.294Z,96.56
2023-08-15T05:15:28.924Z,96.46
2023-08-15T05:17:55.641Z,96.28
2023-08-15T05:20:22.253Z,96.23
2023-08-15T05:22:49.618Z,96.13
2023-08-15T05:25:16.291Z,96.35
2023-08-15T05:27:42.905Z,96.18
2023-08-15T05:30:10.228Z,96.12
2023-08-15T05:32:36.945Z,96.09
2023-08-15T05:35:04.131Z,96.22
2023-08-15T05:37:30.698Z,96.20
2023-08-15T05:39:57.393Z,96.25
2023-08-15T05:42:24.090Z,96.12
2023-08-15T05:44:50.773Z,96.25
2023-08-15T05:47:17.348Z,96.15
2023-08-15T05:49:44.104Z,96.01
2023-08-15T05:52:11.058Z,96.08
2023-08-15T05:54:37.964Z,96.06
2023-08-15T05:57:05.371Z,95.89
2023-08-15T05:59:32.025Z,95.93
2023-08-15T06:01:59.751Z,95.93
2023-08-15T06:04:26.395Z,95.69
2023-08-15T06:06:53.226Z,95.47
2023-08-15T06:09:19.894Z,95.10
2023-08-15T06:11:46.406Z,95.14
2023-08-15T06:14:13.125Z,94.82
2023-08-15T06:16:39.740Z,94.21
2023-08-15T06:19:06.589Z,93.97
2023-08-15T06:21:33.204Z,93.77
2023-08-15T06:23:59.722Z,93.63
2023-08-15T06:26:26.505Z,92.67
2023-08-15T06:28:53.061Z,93.55
2023-08-15T06:32:36.104Z,92.74
2023-08-15T06:35:06.688Z,92.89
2023-08-15T06:37:33.786Z,92.52
2023-08-15T06:40:00.497Z,92.48
2023-08-15T06:42:27.089Z,92.30
2023-08-15T06:45:06.613Z,91.58
2023-08-15T06:47:33.261Z,91.43
2023-08-15T06:49:59.871Z,91.26
2023-08-15T06:52:26.408Z,90.10
2023-08-15T06:54:53.006Z,89.24
2023-08-15T06:57:19.850Z,88.85
2023-08-15T06:59:46.663Z,89.46
2023-08-15T07:02:13.363Z,89.20
2023-08-15T07:04:41.642Z,89.44
2023-08-15T07:07:12.892Z,88.54
2023-08-15T07:09:39.944Z,87.80
2023-08-15T07:12:06.857Z,87.49
2023-08-15T07:14:34.078Z,87.51
2023-08-15T07:17:01.755Z,86.43
2023-08-15T07:19:28.513Z,86.59
2023-08-15T07:21:55.086Z,86.84
2023-08-15T07:24:22.635Z,86.96
2023-08-15T07:26:49.116Z,85.84
2023-08-15T07:29:15.882Z,86.13
2023-08-15T07:31:42.501Z,86.20
2023-08-15T07:34:09.295Z,86.27
2023-08-15T07:36:35.941Z,85.32
2023-08-15T07:39:02.535Z,85.24
2023-08-15T07:41:29.109Z,85.62
2023-08-15T07:43:55.976Z,86.01
2023-08-15T07:46:22.690Z,84.85
2023-08-15T07:48:49.469Z,85.53
2023-08-15T07:51:16.301Z,85.82
2023-08-15T07:53:42.905Z,85.96
2023-08-15T07:56:09.477Z,86.38
2023-08-15T07:58:37.439Z,87.24
2023-08-15T08:01:04.457Z,87.29
2023-08-15T08:03:31.224Z,87.73
2023-08-15T08:05:57.820Z,88.01
2023-08-15T08:08:24.501Z,87.90
2023-08-15T08:10:51.104Z,87.13
2023-08-15T08:13:20.424Z,85.74
2023-08-15T08:15:47.373Z,85.20
2023-08-15T08:18:14.117Z,84.61
2023-08-15T08:20:40.824Z,84.41
2023-08-15T08:23:07.837Z,84.40
2023-08-15T08:25:34.327Z,84.30
2023-08-15T08:28:00.867Z,83.47
2023-08-15T08:30:29.709Z,83.75
2023-08-15T08:32:57.375Z,83.97
2023-08-15T08:35:23.978Z,83.47
2023-08-15T08:37:51.175Z,82.29
2023-08-15T08:40:18.601Z,81.34
2023-08-15T08:42:46.649Z,81.86
2023-08-15T08:45:13.507Z,82.78
2023-08-15T08:47:41.331Z,83.47
2023-08-15T08:50:10.758Z,82.55
2023-08-15T08:52:42.281Z,83.30
2023-08-15T08:55:12.792Z,83.50
2023-08-15T08:57:40.962Z,83.66
2023-08-15T09:00:11.125Z,83.49
2023-08-15T09:02:37.827Z,83.88
2023-08-15T09:05:06.699Z,83.57
2023-08-15T09:07:34.344Z,83.17
2023-08-15T09:10:01.639Z,82.97
2023-08-15T09:12:41.158Z,81.99
2023-08-15T09:15:09.717Z,81.08
2023-08-15T09:17:38.278Z,81.39
2023-08-15T09:20:18.726Z,80.54
2023-08-15T09:22:47.436Z,80.44
2023-08-15T09:25:16.339Z,79.97
2023-08-15T09:27:43.796Z,79.47
2023-08-15T09:30:12.313Z,81.89
2023-08-15T09:32:43.221Z,80.77
2023-08-15T09:35:11.394Z,79.52
2023-08-15T09:37:48.766Z,78.49
2023-08-15T09:40:24.276Z,79.45
2023-08-15T09:42:54.934Z,79.34
2023-08-15T09:45:21.858Z,78.71
2023-08-15T09:47:48.613Z,77.72
2023-08-15T09:50:16.953Z,74.87
2023-08-15T09:52:45.413Z,72.92
2023-08-15T09:55:14.539Z,71.49
2023-08-15T09:57:42.856Z,70.70
2023-08-15T10:00:13.479Z,70.60
2023-08-15T10:03:07.612Z,72.89
2023-08-15T10:05:35.232Z,70.47
2023-08-15T10:08:02.886Z,69.13
2023-08-15T10:10:32.194Z,69.30
2023-08-15T10:12:59.925Z,68.68
2023-08-15T10:15:28.919Z,66.20
2023-08-15T10:17:56.918Z,62.31
2023-08-15T10:20:23.688Z,61.63
2023-08-15T10:22:54.094Z,58.21
2023-08-15T10:25:23.560Z,59.83
2023-08-15T10:27:52.740Z,61.09
2023-08-15T10:30:34.512Z,61.63
2023-08-15T10:33:13.191Z,61.76
2023-08-15T10:35:53.340Z,62.98
2023-08-15T10:38:31.774Z,60.70
2023-08-15T10:41:03.511Z,59.87
2023-08-15T10:43:30.163Z,58.55
2023-08-15T10:46:02.900Z,56.73
2023-08-15T10:48:55.590Z,59.61
2023-08-15T10:51:30.193Z,62.07
2023-08-15T10:54:02.405Z,58.24
2023-08-15T10:56:31.086Z,58.03
2023-08-15T10:58:59.045Z,58.93
2023-08-15T11:01:28.974Z,55.90
2023-08-15T11:03:57.392Z,55.99
2023-08-15T11:06:24.781Z,56.20
2023-08-15T11:08:58.709Z,60.10
2023-08-15T11:11:26.197Z,60.18
2023-08-15T11:13:54.470Z,58.18
2023-08-15T11:16:23.783Z,62.94
2023-08-15T11:18:50.858Z,63.41
2023-08-15T11:21:19.144Z,60.80
2023-08-15T11:23:48.479Z,61.27
2023-08-15T11:26:17.627Z,60.45
2023-08-15T11:28:45.273Z,60.01
2023-08-15T11:33:43.657Z,59.05
2023-08-15T11:36:13.101Z,58.68
2023-08-15T11:38:40.272Z,59.22
2023-08-15T11:41:07.011Z,59.55
2023-08-15T11:43:34.914Z,61.49
2023-08-15T11:46:05.528Z,58.47
2023-08-15T11:48:33.754Z,56.94
2023-08-15T11:51:01.349Z,57.93
2023-08-15T11:53:28.898Z,55.13
2023-08-15T11:55:56.029Z,59.00
2023-08-15T11:58:27.527Z,57.97
2023-08-15T12:01:02.378Z,58.76
2023-08-15T12:03:31.105Z,57.35
2023-08-15T12:05:59.282Z,59.05
2023-08-15T12:08:30.449Z,58.78
2023-08-15T12:10:58.841Z,55.39
2023-08-15T12:13:34.945Z,53.81
2023-08-15T12:16:03.199Z,53.08
2023-08-15T12:18:31.126Z,53.45
2023-08-15T12:20:58.169Z,55.31
2023-08-15T12:23:28.705Z,54.36
2023-08-15T12:25:56.529Z,56.14
2023-08-15T12:28:23.478Z,60.24
2023-08-15T12:30:50.877Z,60.71
2023-08-15T12:33:27.457Z,61.14
2023-08-15T12:36:02.556Z,61.23
2023-08-15T12:38:30.258Z,59.70
2023-08-15T12:40:57.240Z,58.76
2023-08-15T12:43:23.940Z,60.02
2023-08-15T12:45:50.693Z,60.47
2023-08-15T12:48:17.400Z,60.16
2023-08-15T12:50:44.224Z,60.38
2023-08-15T12:53:11.027Z,60.61
2023-08-15T12:55:37.741Z,61.34
2023-08-15T12:58:04.847Z,61.64
2023-08-15T13:00:31.490Z,62.86
2023-08-15T13:02:58.989Z,60.68
2023-08-15T13:05:26.233Z,61.32
2023-08-15T13:07:53.054Z,61.81
2023-08-15T13:10:19.615Z,61.47
2023-08-15T13:12:47.253Z,62.38
2023-08-15T13:15:14.127Z,62.31
2023-08-15T13:17:41.094Z,60.93
2023-08-15T13:20:08.712Z,60.27
2023-08-15T13:22:35.644Z,61.24
2023-08-15T13:25:02.235Z,61.59
2023-08-15T13:27:28.982Z,60.51
2023-08-15T13:29:55.780Z,61.89
2023-08-15T13:32:22.606Z,62.99
2023-08-15T13:34:49.354Z,62.62
2023-08-15T13:37:15.910Z,63.90
2023-08-15T13:39:42.422Z,63.87
2023-08-15T13:42:11.161Z,62.96
2023-08-15T13:44:44.624Z,63.54
2023-08-15T13:47:11.349Z,63.53
2023-08-15T13:49:38.054Z,63.58
2023-08-15T13:52:04.741Z,63.97
2023-08-15T13:54:32.378Z,64.27
2023-08-15T13:56:59.038Z,64.74
2023-08-15T13:59:25.771Z,64.54
2023-08-15T14:01:52.483Z,64.75
2023-08-15T14:04:19.206Z,64.32
2023-08-15T14:06:45.873Z,64.44
2023-08-15T14:09:12.514Z,65.25
2023-08-15T14:11:39.400Z,64.78
2023-08-15T14:14:06.015Z,66.29
2023-08-15T14:16:32.647Z,66.12
2023-08-15T14:18:59.269Z,67.12
2023-08-15T14:21:25.906Z,66.70
2023-08-15T14:23:52.727Z,65.27
2023-08-15T14:26:19.410Z,65.97
2023-08-15T14:28:46.100Z,65.24
2023-08-15T14:31:12.683Z,65.40
2023-08-15T14:33:39.247Z,64.79
2023-08-15T14:36:07.369Z,65.62
2023-08-15T14:38:34.149Z,65.90
2023-08-15T14:41:00.847Z,65.46
2023-08-15T14:43:27.383Z,66.31
2023-08-15T14:45:54.008Z,67.40
2023-08-15T14:48:20.630Z,68.05
2023-08-15T14:50:47.221Z,69.35
2023-08-15T14:53:13.884Z,69.66
2023-08-15T14:55:40.683Z,68.86
2023-08-15T14:58:07.226Z,68.67
2023-08-15T15:00:33.813Z,68.08
2023-08-15T15:03:00.705Z,68.51
2023-08-15T15:05:27.592Z,68.18
2023-08-15T15:07:54.560Z,67.23
2023-08-15T15:10:21.287Z,66.17
2023-08-15T15:12:48.515Z,66.64
2023-08-15T15:15:15.051Z,67.06
2023-08-15T15:17:41.774Z,66.28
2023-08-15T15:20:09.059Z,66.22
2023-08-15T15:22:35.763Z,65.37
2023-08-15T15:25:02.704Z,64.23
2023-08-15T15:27:29.388Z,59.85
2023-08-15T15:29:56.122Z,57.70
2023-08-15T15:32:23.068Z,58.11
2023-08-15T15:34:49.853Z,58.73
2023-08-15T15:37:16.622Z,58.34
2023-08-15T15:39:43.457Z,58.43
2023-08-15T15:42:10.135Z,58.49
2023-08-15T15:44:37.002Z,56.89
2023-08-15T15:47:04.948Z,52.71
2023-08-15T15:49:31.661Z,54.07
2023-08-15T15:51:58.783Z,52.03
2023-08-15T15:54:25.536Z,51.09
2023-08-15T15:56:52.132Z,52.79
2023-08-15T15:59:18.790Z,53.06
2023-08-15T16:01:45.848Z,51.91
2023-08-15T16:04:12.813Z,51.44
2023-08-15T16:06:39.658Z,51.01
2023-08-15T16:09:06.615Z,53.08
2023-08-15T16:11:33.443Z,52.82
2023-08-15T16:14:00.173Z,52.86
2023-08-15T16:16:26.791Z,53.92
2023-08-15T16:18:53.968Z,52.60
2023-08-15T16:21:22.128Z,53.74
2023-08-15T16:23:49.554Z,53.30
2023-08-15T16:26:16.143Z,53.50
2023-08-15T16:28:44.964Z,53.71
2023-08-15T16:31:11.831Z,54.02
2023-08-15T16:33:38.482Z,54.42
2023-08-15T16:36:05.110Z,57.57
2023-08-15T16:38:31.692Z,58.63
2023-08-15T16:40:58.395Z,59.50
2023-08-15T16:43:28.059Z,59.27
2023-08-15T16:45:54.733Z,59.84
2023-08-15T16:48:21.425Z,60.11
2023-08-15T16:50:48.111Z,59.51
2023-08-15T16:53:14.961Z,58.02
2023-08-15T16:55:41.624Z,56.98
2023-08-15T16:58:08.190Z,57.32
2023-08-15T17:00:35.372Z,57.75
2023-08-15T17:03:02.191Z,58.20
2023-08-15T17:05:28.955Z,59.10
2023-08-15T17:07:55.590Z,59.47
2023-08-15T17:10:22.262Z,58.97
2023-08-15T17:12:49.012Z,58.95
2023-08-15T17:15:16.637Z,60.26
2023-08-15T17:17:43.939Z,60.31
2023-08-15T17:20:11.520Z,60.66
2023-08-15T17:22:38.447Z,61.73
2023-08-15T17:25:05.808Z,62.73
2023-08-15T17:27:32.369Z,62.81
2023-08-15T17:29:59.171Z,65.05
2023-08-15T17:32:26.501Z,67.00
2023-08-15T17:34:53.344Z,67.45
2023-08-15T17:37:19.940Z,68.05
2023-08-15T17:39:46.596Z,68.11
2023-08-15T17:42:13.241Z,68.37
2023-08-15T17:44:39.907Z,68.53
2023-08-15T17:47:06.930Z,69.18
2023-08-15T17:49:34.831Z,69.35
2023-08-15T17:52:01.555Z,69.28
2023-08-15T17:57:36.945Z,69.56
2023-08-15T18:00:04.714Z,70.89
2023-08-15T18:02:31.500Z,71.45
2023-08-15T18:04:58.034Z,72.08
2023-08-15T18:07:24.735Z,72.24
2023-08-15T18:09:51.618Z,72.79
2023-08-15T18:12:18.706Z,73.15
2023-08-15T18:14:45.245Z,73.79
2023-08-15T18:17:11.849Z,74.35
2023-08-15T18:19:40.034Z,74.27
2023-08-15T18:22:17.735Z,74.99
2023-08-15T18:24:44.417Z,75.17
2023-08-15T18:27:10.966Z,75.35
2023-08-15T18:29:37.574Z,75.56
2023-08-15T18:32:04.572Z,75.80
2023-08-15T18:34:31.210Z,75.96
2023-08-15T18:36:58.343Z,76.37
2023-08-15T18:39:24.906Z,76.28
2023-08-15T18:41:52.931Z,76.81
2023-08-15T18:44:19.573Z,77.16
2023-08-15T18:46:48.410Z,77.31
2023-08-15T18:49:15.403Z,78.05
2023-08-15T18:51:41.988Z,78.20
2023-08-15T18:54:09.041Z,78.71
2023-08-15T18:56:36.010Z,79.03
2023-08-15T18:59:02.608Z,79.36
2023-08-15T19:01:29.228Z,79.66
2023-08-15T19:03:56.213Z,79.70
2023-08-15T19:06:22.892Z,79.93
2023-08-15T19:08:49.531Z,79.80
2023-08-15T19:11:16.141Z,79.91
2023-08-15T19:13:42.952Z,80.19
2023-08-15T19:16:09.645Z,81.15
2023-08-15T19:18:36.239Z,81.62
2023-08-15T19:21:02.916Z,81.92
2023-08-15T19:23:29.431Z,82.40
2023-08-15T19:25:56.162Z,83.18
2023-08-15T19:28:22.861Z,83.44
2023-08-15T19:30:49.543Z,83.95
2023-08-15T19:33:16.133Z,84.10
2023-08-15T19:35:42.720Z,84.30
2023-08-15T19:38:09.997Z,84.39
2023-08-15T19:40:36.757Z,84.46
2023-08-15T19:43:03.630Z,84.42
2023-08-15T19:45:30.264Z,84.89
2023-08-15T19:47:58.947Z,84.53
2023-08-15T19:50:27.482Z,84.41
2023-08-15T19:52:54.896Z,85.27
2023-08-15T19:55:21.664Z,85.00
2023-08-15T19:57:48.534Z,85.27
2023-08-15T20:00:15.286Z,85.25
2023-08-15T20:02:42.061Z,85.15
2023-08-15T20:05:09.466Z,85.69
2023-08-15T20:07:38.536Z,85.40
2023-08-15T20:10:15.949Z,85.38
2023-08-15T20:12:42.869Z,85.49
2023-08-15T20:15:09.960Z,85.55
2023-08-15T20:17:36.736Z,85.78
2023-08-15T20:20:03.651Z,86.21
2023-08-15T20:22:32.037Z,86.10
2023-08-15T20:24:58.865Z,86.37
2023-08-15T20:27:25.550Z,86.40
2023-08-15T20:29:57.293Z,86.31
2023-08-15T20:32:24.556Z,86.04
2023-08-15T20:34:51.635Z,86.10
2023-08-15T20:37:18.243Z,86.59
2023-08-15T20:39:44.945Z,86.66
2023-08-15T20:42:12.163Z,86.63
2023-08-15T20:44:38.756Z,86.37
2023-08-15T20:47:05.596Z,86.54
2023-08-15T20:49:32.194Z,86.75
2023-08-15T20:51:59.404Z,86.01
2023-08-15T20:54:26.110Z,86.91
2023-08-15T20:56:52.747Z,86.69
2023-08-15T20:59:19.579Z,86.79
2023-08-15T21:01:46.419Z,86.85
2023-08-15T21:04:13.258Z,87.10
2023-08-15T21:06:39.818Z,87.08
2023-08-15T21:09:09.396Z,87.37
2023-08-15T21:11:36.265Z,86.91
2023-08-15T21:14:03.294Z,86.83
2023-08-15T21:16:29.902Z,87.22
2023-08-15T21:18:57.998Z,87.25
2023-08-15T21:21:24.556Z,87.22
2023-08-15T21:23:51.170Z,87.51
2023-08-15T21:26:17.712Z,87.40
2023-08-15T21:28:44.216Z,87.70
2023-08-15T21:31:10.777Z,87.87
2023-08-15T21:33:38.548Z,88.07
2023-08-15T21:36:05.577Z,88.17
2023-08-15T21:38:32.224Z,88.03
2023-08-15T21:40:58.830Z,87.62
2023-08-15T21:43:25.857Z,87.35
2023-08-15T21:45:52.451Z,86.90
2023-08-15T21:48:19.750Z,86.53
2023-08-15T21:50:46.826Z,87.01
2023-08-15T21:53:13.581Z,87.12
2023-08-15T21:55:40.139Z,86.78
2023-08-15T21:58:06.731Z,87.12
2023-08-15T22:00:33.306Z,87.22
2023-08-15T22:03:00.031Z,87.22
2023-08-15T22:05:26.886Z,86.84
2023-08-15T22:07:53.926Z,87.13
2023-08-15T22:10:23.963Z,86.68
2023-08-15T22:12:51.530Z,85.92
2023-08-15T22:15:19.026Z,85.75
2023-08-15T22:17:54.759Z,84.98
2023-08-15T22:20:27.479Z,84.90
2023-08-15T22:22:54.103Z,85.24
2023-08-15T22:25:21.491Z,85.83
2023-08-15T22:27:49.909Z,86.16
2023-08-15T22:30:16.715Z,86.28
2023-08-15T22:32:43.368Z,85.97
2023-08-15T22:35:10.419Z,85.38
2023-08-15T22:37:37.008Z,85.33
2023-08-15T22:40:04.918Z,84.84
2023-08-15T22:42:32.241Z,84.47
2023-08-15T22:44:58.972Z,83.45
2023-08-15T22:47:25.815Z,82.06
2023-08-15T22:49:52.557Z,80.82
2023-08-15T22:52:19.146Z,80.65
2023-08-15T22:54:45.690Z,82.68
2023-08-15T22:57:13.442Z,83.53
2023-08-15T22:59:40.205Z,85.96
2023-08-15T23:02:06.800Z,87.78
2023-08-15T23:04:33.451Z,88.39
2023-08-15T23:07:00.053Z,89.01
2023-08-15T23:09:26.824Z,88.79
2023-08-15T23:11:53.457Z,88.84
2023-08-15T23:14:20.105Z,88.78
2023-08-15T23:16:46.691Z,88.51
2023-08-15T23:19:13.586Z,88.84
2023-08-15T23:21:42.528Z,89.04
2023-08-15T23:24:09.875Z,88.90
2023-08-15T23:26:37.081Z,88.73
2023-08-15T23:29:04.574Z,88.90
2023-08-15T23:31:40.201Z,88.95
2023-08-15T23:34:07.620Z,88.65
2023-08-15T23:36:34.795Z,88.58
2023-08-15T23:39:02.514Z,88.71
2023-08-15T23:41:29.438Z,88.87
2023-08-15T23:43:56.031Z,88.89
2023-08-15T23:46:24.483Z,88.79
2023-08-15T23:48:52.043Z,88.62
2023-08-15T23:51:18.980Z,89.01
2023-08-15T23:53:48.287Z,89.03
2023-08-15T23:56:16.110Z,89.26
